createdAt,value
2023-03-16T00:00:24.488Z,93679.03
2023-03-16T00:02:52.525Z,93696.97
2023-03-16T00:05:20.705Z,93701.78
2023-03-16T00:07:48.531Z,93689.81
2023-03-16T00:10:16.991Z,93690.34
2023-03-16T00:12:45.119Z,93715.56
2023-03-16T00:15:13.736Z,93701.94
2023-03-16T00:17:48.456Z,93698.03
2023-03-16T00:20:17.779Z,93712.03
2023-03-16T00:22:46.279Z,93714.63
2023-03-16T00:25:16.007Z,93706.66
2023-03-16T00:27:43.917Z,93701.28
2023-03-16T00:30:13.232Z,93697.38
2023-03-16T00:32:42.893Z,93696.13
2023-03-16T00:35:11.018Z,93694.66
2023-03-16T00:37:43.789Z,93705.97
2023-03-16T00:40:14.077Z,93701.28
2023-03-16T00:42:42.005Z,93734.81
2023-03-16T00:45:11.951Z,93704.41
2023-03-16T00:47:39.938Z,93718.13
2023-03-16T00:50:10.164Z,93712.22
2023-03-16T00:52:38.433Z,93712.22
2023-03-16T00:55:07.146Z,93706.00
2023-03-16T00:57:35.100Z,93712.47
2023-03-16T01:00:12.762Z,93719.59
2023-03-16T01:02:40.879Z,93729.97
2023-03-16T01:05:11.216Z,93724.59
2023-03-16T01:07:39.490Z,93717.19
2023-03-16T01:10:08.774Z,93699.69
2023-03-16T01:12:37.080Z,93729.88
2023-03-16T01:15:05.750Z,93721.38
2023-03-16T01:17:35.217Z,93733.19
2023-03-16T01:20:08.148Z,93712.63
2023-03-16T01:22:37.416Z,93734.94
2023-03-16T01:25:05.773Z,93738.03
2023-03-16T01:27:33.773Z,93724.72
2023-03-16T01:30:02.336Z,93731.88
2023-03-16T01:32:30.304Z,93746.66
2023-03-16T01:34:58.371Z,93720.69
2023-03-16T01:37:26.310Z,93729.59
2023-03-16T01:39:55.545Z,93727.44
2023-03-16T01:42:24.184Z,93726.09
2023-03-16T01:44:55.547Z,93733.75
2023-03-16T01:47:24.100Z,93722.69
2023-03-16T01:49:55.416Z,93744.13
2023-03-16T01:52:28.370Z,93745.19
2023-03-16T01:55:00.769Z,93747.63
2023-03-16T01:57:32.637Z,93746.16
2023-03-16T02:00:09.080Z,93733.59
2023-03-16T02:02:39.861Z,93729.44
2023-03-16T02:05:13.477Z,93733.59
2023-03-16T02:07:45.574Z,93736.41
2023-03-16T02:10:17.736Z,93727.97
2023-03-16T02:12:46.087Z,93785.81
2023-03-16T02:15:15.756Z,93765.50
2023-03-16T02:17:45.984Z,93765.91
2023-03-16T02:20:27.428Z,93778.53
2023-03-16T02:22:56.053Z,93744.88
2023-03-16T02:25:30.495Z,93742.84
2023-03-16T02:28:07.192Z,93791.84
2023-03-16T02:30:36.827Z,93792.22
2023-03-16T02:33:06.168Z,93763.91
2023-03-16T02:35:34.823Z,93794.63
2023-03-16T02:38:02.996Z,93761.84
2023-03-16T02:40:32.865Z,93788.69
2023-03-16T02:43:04.528Z,93783.56
2023-03-16T02:45:37.963Z,93771.09
2023-03-16T02:48:14.821Z,93770.69
2023-03-16T02:50:48.139Z,93809.88
2023-03-16T02:53:16.777Z,93794.25
2023-03-16T02:55:45.908Z,93785.91
2023-03-16T02:58:14.724Z,93801.22
2023-03-16T03:00:42.812Z,93763.72
2023-03-16T03:03:12.755Z,93793.66
2023-03-16T03:05:41.051Z,93803.91
2023-03-16T03:08:09.124Z,93808.47
2023-03-16T03:10:37.005Z,93805.16
2023-03-16T03:13:07.431Z,93808.22
2023-03-16T03:15:35.969Z,93814.97
2023-03-16T03:18:04.560Z,93817.81
2023-03-16T03:20:34.001Z,93797.59
2023-03-16T03:23:03.145Z,93822.50
2023-03-16T03:25:34.834Z,93807.81
2023-03-16T03:28:05.590Z,93831.72
2023-03-16T03:30:33.927Z,93825.53
2023-03-16T03:33:02.749Z,93800.84
2023-03-16T03:35:30.841Z,93829.72
2023-03-16T03:38:00.133Z,93829.97
2023-03-16T03:40:28.261Z,93831.28
2023-03-16T03:42:56.260Z,93830.44
2023-03-16T03:45:24.239Z,93833.97
2023-03-16T03:47:52.300Z,93832.22
2023-03-16T03:50:20.346Z,93844.56
2023-03-16T03:52:48.653Z,93851.47
2023-03-16T03:55:18.106Z,93862.50
2023-03-16T03:57:46.079Z,93881.19
2023-03-16T04:00:14.953Z,93876.34
2023-03-16T04:02:43.044Z,93869.47
2023-03-16T04:05:11.134Z,93863.00
2023-03-16T04:07:39.137Z,93873.28
2023-03-16T04:10:09.152Z,93859.94
2023-03-16T04:12:38.467Z,93877.00
2023-03-16T04:15:07.257Z,93882.81
2023-03-16T04:17:35.489Z,93862.31
2023-03-16T04:20:06.004Z,93861.00
2023-03-16T04:22:34.051Z,93863.69
2023-03-16T04:25:03.104Z,93857.88
2023-03-16T04:27:36.270Z,93873.78
2023-03-16T04:30:06.689Z,93865.69
2023-03-16T04:32:35.254Z,93885.53
2023-03-16T04:35:03.377Z,93874.34
2023-03-16T04:37:31.386Z,93887.78
2023-03-16T04:39:59.499Z,93914.94
2023-03-16T04:42:27.558Z,93876.41
2023-03-16T04:44:56.105Z,93901.25
2023-03-16T04:47:26.078Z,93900.75
2023-03-16T04:49:54.046Z,93914.16
2023-03-16T04:52:21.948Z,93913.59
2023-03-16T04:54:49.872Z,93860.91
2023-03-16T04:57:19.351Z,93917.44
2023-03-16T04:59:47.377Z,93923.59
2023-03-16T05:02:16.973Z,93936.13
2023-03-16T05:04:46.310Z,93932.88
2023-03-16T05:07:14.294Z,93948.44
2023-03-16T05:09:42.194Z,93940.75
2023-03-16T05:12:10.683Z,93947.97
2023-03-16T05:14:38.813Z,93929.84
2023-03-16T05:17:06.869Z,93938.94
2023-03-16T05:19:35.003Z,93924.28
2023-03-16T05:22:04.760Z,93963.63
2023-03-16T05:24:32.695Z,93944.72
2023-03-16T05:27:03.536Z,93951.22
2023-03-16T05:29:32.229Z,93938.25
2023-03-16T05:32:00.542Z,93959.78
2023-03-16T05:34:28.760Z,93964.69
2023-03-16T05:36:56.726Z,93962.00
2023-03-16T05:39:26.008Z,93971.28
2023-03-16T05:41:55.205Z,93982.69
2023-03-16T05:44:23.679Z,93972.34
2023-03-16T05:46:51.687Z,93972.34
2023-03-16T05:49:19.753Z,93956.56
2023-03-16T05:51:48.111Z,93982.06
2023-03-16T05:54:16.079Z,93981.63
2023-03-16T05:56:45.557Z,93965.78
2023-03-16T05:59:13.482Z,93983.34
2023-03-16T06:01:42.310Z,93982.16
2023-03-16T06:04:10.338Z,94003.78
2023-03-16T06:06:38.334Z,93999.75
2023-03-16T06:09:06.309Z,93976.31
2023-03-16T06:11:34.261Z,94009.00
2023-03-16T06:14:03.778Z,93994.03
2023-03-16T06:16:31.841Z,93993.13
2023-03-16T06:19:00.300Z,93994.50
2023-03-16T06:21:28.384Z,94001.56
2023-03-16T06:23:56.309Z,93996.69
2023-03-16T06:26:24.376Z,94008.22
2023-03-16T06:28:52.290Z,94021.28
2023-03-16T06:31:21.642Z,94017.66
2023-03-16T06:33:49.820Z,94019.88
2023-03-16T06:36:17.890Z,94033.94
2023-03-16T06:38:45.830Z,94010.19
2023-03-16T06:41:14.104Z,94030.06
2023-03-16T06:43:42.564Z,94023.63
2023-03-16T06:46:11.289Z,94041.09
2023-03-16T06:48:41.849Z,94053.84
2023-03-16T06:51:09.953Z,94048.47
2023-03-16T06:53:38.088Z,94057.19
2023-03-16T06:56:06.770Z,94090.25
2023-03-16T06:58:34.707Z,94063.63
2023-03-16T07:01:03.743Z,94040.56
2023-03-16T07:03:32.202Z,94054.06
2023-03-16T07:06:01.721Z,94070.59
2023-03-16T07:08:29.663Z,94078.81
2023-03-16T07:10:57.591Z,94084.75
2023-03-16T07:13:25.934Z,94076.16
2023-03-16T07:15:54.789Z,94090.25
2023-03-16T07:18:22.817Z,94065.66
2023-03-16T07:20:50.794Z,94053.22
2023-03-16T07:23:20.370Z,94078.69
2023-03-16T07:25:48.340Z,94102.41
2023-03-16T07:28:16.438Z,94087.41
2023-03-16T07:31:00.254Z,94099.59
2023-03-16T07:33:32.285Z,94091.19
2023-03-16T07:36:04.229Z,94102.22
2023-03-16T07:38:34.233Z,94126.88
2023-03-16T07:41:02.372Z,94100.66
2023-03-16T07:43:30.478Z,94083.81
2023-03-16T07:45:58.771Z,94122.31
2023-03-16T07:48:26.669Z,94098.75
2023-03-16T07:50:55.002Z,94117.28
2023-03-16T07:53:23.042Z,94135.31
2023-03-16T07:55:52.407Z,94099.38
2023-03-16T07:58:20.421Z,94106.38
2023-03-16T08:00:48.422Z,94089.84
2023-03-16T08:03:16.610Z,94114.97
2023-03-16T08:05:44.878Z,94108.31
2023-03-16T08:08:12.837Z,94117.41
2023-03-16T08:10:41.739Z,94121.97
2023-03-16T08:13:11.071Z,94129.41
2023-03-16T08:15:39.138Z,94125.06
2023-03-16T08:18:07.638Z,94100.38
2023-03-16T08:20:35.726Z,94148.94
2023-03-16T08:23:03.799Z,94147.34
2023-03-16T08:25:31.970Z,94138.38
2023-03-16T08:27:59.919Z,94143.25
2023-03-16T08:30:31.078Z,94144.81
2023-03-16T08:33:01.632Z,94129.09
2023-03-16T08:35:30.216Z,94145.75
2023-03-16T08:37:58.102Z,94127.03
2023-03-16T08:40:29.246Z,94156.59
2023-03-16T08:43:07.036Z,94155.75
2023-03-16T08:45:36.995Z,94142.81
2023-03-16T08:48:05.422Z,94163.72
2023-03-16T08:50:33.675Z,94149.88
2023-03-16T08:53:02.318Z,94144.75
2023-03-16T08:55:30.294Z,94118.06
2023-03-16T08:57:58.396Z,94166.72
2023-03-16T09:00:26.584Z,94157.03
2023-03-16T09:02:56.785Z,94141.75
2023-03-16T09:05:25.553Z,94172.25
2023-03-16T09:07:54.127Z,94166.50
2023-03-16T09:10:23.210Z,94174.75
2023-03-16T09:12:52.330Z,94168.19
2023-03-16T09:15:21.880Z,94185.19
2023-03-16T09:17:50.549Z,94163.72
2023-03-16T09:20:29.613Z,94178.09
2023-03-16T09:22:58.813Z,94181.06
2023-03-16T09:25:27.791Z,94172.97
2023-03-16T09:27:55.948Z,94165.50
2023-03-16T09:30:24.048Z,94159.66
2023-03-16T09:32:52.111Z,94165.47
2023-03-16T09:35:21.696Z,94181.44
2023-03-16T09:38:05.284Z,94190.41
2023-03-16T09:40:36.104Z,94187.28
2023-03-16T09:43:22.065Z,94184.22
2023-03-16T09:46:00.720Z,94194.47
2023-03-16T09:48:33.862Z,94196.22
2023-03-16T09:51:05.997Z,94198.00
2023-03-16T09:53:36.781Z,94174.59
2023-03-16T09:56:06.741Z,94179.31
2023-03-16T09:58:34.732Z,94204.25
2023-03-16T10:01:11.255Z,94221.19
2023-03-16T10:03:57.584Z,94169.72
2023-03-16T10:06:27.949Z,94193.88
2023-03-16T10:09:04.852Z,94166.84
2023-03-16T10:11:36.773Z,94188.78
2023-03-16T10:14:17.453Z,94185.97
2023-03-16T10:16:50.641Z,94169.63
2023-03-16T10:19:23.369Z,94198.72
2023-03-16T10:21:57.952Z,94199.84
2023-03-16T10:24:44.916Z,94196.44
2023-03-16T10:27:20.541Z,94204.69
2023-03-16T10:29:48.808Z,94212.00
2023-03-16T10:32:19.614Z,94187.88
2023-03-16T10:34:59.348Z,94172.16
2023-03-16T10:37:32.707Z,94158.38
2023-03-16T10:40:01.632Z,94200.59
2023-03-16T10:42:29.754Z,94191.50
2023-03-16T10:45:03.049Z,94207.97
2023-03-16T10:47:33.005Z,94185.00
2023-03-16T10:50:11.687Z,94197.56
2023-03-16T10:52:45.273Z,94168.56
2023-03-16T10:55:18.523Z,94195.78
2023-03-16T10:57:51.611Z,94192.72
2023-03-16T11:00:24.394Z,94162.31
2023-03-16T11:02:55.370Z,94173.66
2023-03-16T11:05:31.263Z,94196.09
2023-03-16T11:08:09.556Z,94219.88
2023-03-16T11:10:49.388Z,94197.22
2023-03-16T11:13:22.961Z,94203.19
2023-03-16T11:15:57.451Z,94231.13
2023-03-16T11:18:31.537Z,94176.69
2023-03-16T11:21:08.212Z,94184.66
2023-03-16T11:23:43.188Z,94207.81
2023-03-16T11:26:21.347Z,94199.44
2023-03-16T11:28:55.042Z,94180.25
2023-03-16T11:31:34.531Z,94210.41
2023-03-16T11:34:03.008Z,94195.56
2023-03-16T11:36:41.789Z,94204.34
2023-03-16T11:39:24.968Z,94184.59
2023-03-16T11:42:15.795Z,94183.91
2023-03-16T11:44:52.801Z,94203.22
2023-03-16T11:47:45.697Z,94205.50
2023-03-16T11:50:19.362Z,94216.72
2023-03-16T11:52:55.506Z,94221.00
2023-03-16T11:55:34.131Z,94209.03
2023-03-16T11:58:18.330Z,94205.63
2023-03-16T12:00:56.186Z,94212.34
2023-03-16T12:03:58.484Z,94206.22
2023-03-16T12:06:39.412Z,94180.41
2023-03-16T12:09:30.254Z,94223.19
2023-03-16T12:12:06.429Z,94189.09
2023-03-16T12:14:40.929Z,94219.41
2023-03-16T12:17:15.811Z,94227.91
2023-03-16T12:19:47.593Z,94233.59
2023-03-16T12:22:21.715Z,94206.97
2023-03-16T12:24:50.456Z,94214.44
2023-03-16T12:27:25.088Z,94218.34
2023-03-16T12:30:03.902Z,94238.72
2023-03-16T12:32:42.710Z,94250.53
2023-03-16T12:35:28.278Z,94227.97
2023-03-16T12:38:12.059Z,94189.91
2023-03-16T12:40:47.454Z,94264.19
2023-03-16T12:43:33.090Z,94236.22
2023-03-16T12:46:05.657Z,94257.94
2023-03-16T12:48:38.798Z,94251.97
2023-03-16T12:51:07.005Z,94247.63
2023-03-16T12:53:46.803Z,94241.84
2023-03-16T12:56:17.720Z,94262.41
2023-03-16T12:58:49.822Z,94262.72
2023-03-16T13:01:20.780Z,94238.97
2023-03-16T13:03:51.744Z,94230.72
2023-03-16T13:06:24.998Z,94268.75
2023-03-16T13:08:59.783Z,94279.03
2023-03-16T13:11:29.056Z,94262.22
2023-03-16T13:14:11.073Z,94217.78
2023-03-16T13:16:41.777Z,94239.59
2023-03-16T13:19:37.761Z,94265.56
2023-03-16T13:22:20.961Z,94257.22
2023-03-16T13:24:54.035Z,94257.41
2023-03-16T13:27:25.187Z,94244.53
2023-03-16T13:30:00.136Z,94251.94
2023-03-16T13:32:33.113Z,94268.88
2023-03-16T13:35:03.389Z,94260.75
2023-03-16T13:37:32.100Z,94242.63
2023-03-16T13:40:01.915Z,94250.13
2023-03-16T13:42:31.791Z,94278.81
2023-03-16T13:45:12.285Z,94311.44
2023-03-16T13:47:44.133Z,94283.56
2023-03-16T13:50:14.226Z,94279.38
2023-03-16T13:52:44.678Z,94296.19
2023-03-16T13:55:18.530Z,94264.59
2023-03-16T13:57:47.672Z,94289.22
2023-03-16T14:00:20.401Z,94297.63
2023-03-16T14:02:53.063Z,94311.88
2023-03-16T14:05:24.572Z,94285.38
2023-03-16T14:07:53.400Z,94279.25
2023-03-16T14:10:22.412Z,94302.56
2023-03-16T14:12:54.082Z,94302.78
2023-03-16T14:15:26.771Z,94286.72
2023-03-16T14:17:55.597Z,94322.66
2023-03-16T14:20:25.951Z,94299.63
2023-03-16T14:22:54.884Z,94292.00
2023-03-16T14:25:25.702Z,94314.66
2023-03-16T14:28:01.239Z,94320.47
2023-03-16T14:30:32.175Z,94301.66
2023-03-16T14:33:01.955Z,94256.00
2023-03-16T14:35:32.390Z,94305.84
2023-03-16T14:38:21.870Z,94305.25
2023-03-16T14:40:55.057Z,94321.38
2023-03-16T14:43:32.787Z,94327.75
2023-03-16T14:46:05.487Z,94328.56
2023-03-16T14:48:36.595Z,94322.38
2023-03-16T14:51:06.514Z,94327.94
2023-03-16T14:53:34.562Z,94356.16
2023-03-16T14:56:03.864Z,94325.50
2023-03-16T14:58:31.950Z,94337.47
2023-03-16T15:01:00.550Z,94332.63
2023-03-16T15:03:36.272Z,94333.41
2023-03-16T15:06:07.648Z,94340.88
2023-03-16T15:08:44.407Z,94361.56
2023-03-16T15:11:13.072Z,94369.03
2023-03-16T15:13:55.610Z,94353.91
2023-03-16T15:16:24.062Z,94359.91
2023-03-16T15:18:53.481Z,94362.25
2023-03-16T15:21:26.751Z,94346.09
2023-03-16T15:23:58.525Z,94365.38
2023-03-16T15:26:29.213Z,94339.38
2023-03-16T15:28:58.411Z,94380.84
2023-03-16T15:31:26.710Z,94365.31
2023-03-16T15:33:56.292Z,94349.69
2023-03-16T15:36:25.069Z,94361.34
2023-03-16T15:38:55.274Z,94368.91
2023-03-16T15:41:28.285Z,94370.84
2023-03-16T15:44:00.993Z,94384.25
2023-03-16T15:46:29.189Z,94379.72
2023-03-16T15:48:58.536Z,94356.94
2023-03-16T15:51:28.994Z,94387.84
2023-03-16T15:54:00.358Z,94399.28
2023-03-16T15:56:32.363Z,94396.47
2023-03-16T15:59:06.141Z,94414.13
2023-03-16T16:01:44.958Z,94401.72
2023-03-16T16:04:17.633Z,94398.69
2023-03-16T16:06:45.936Z,94412.53
2023-03-16T16:09:13.883Z,94399.50
2023-03-16T16:11:42.396Z,94417.06
2023-03-16T16:14:15.637Z,94414.84
2023-03-16T16:16:45.991Z,94423.22
2023-03-16T16:19:16.129Z,94424.03
2023-03-16T16:21:44.728Z,94423.81
2023-03-16T16:24:12.947Z,94426.47
2023-03-16T16:26:52.930Z,94428.47
2023-03-16T16:29:24.135Z,94434.38
2023-03-16T16:31:52.641Z,94409.63
2023-03-16T16:34:25.286Z,94431.34
2023-03-16T16:36:54.234Z,94414.84
2023-03-16T16:39:23.078Z,94423.34
2023-03-16T16:41:54.508Z,94456.34
2023-03-16T16:44:24.729Z,94448.00
2023-03-16T16:46:53.742Z,94455.19
2023-03-16T16:49:24.969Z,94431.34
2023-03-16T16:51:53.669Z,94464.16
2023-03-16T16:54:23.377Z,94455.09
2023-03-16T16:56:53.915Z,94450.19
2023-03-16T16:59:24.079Z,94454.06
2023-03-16T17:01:54.000Z,94439.75
2023-03-16T17:04:25.376Z,94464.63
2023-03-16T17:06:55.777Z,94448.47
2023-03-16T17:09:24.376Z,94458.34
2023-03-16T17:11:52.539Z,94460.69
2023-03-16T17:14:22.345Z,94477.88
2023-03-16T17:16:51.985Z,94445.44
2023-03-16T17:19:23.301Z,94455.31
2023-03-16T17:21:53.479Z,94475.06
2023-03-16T17:24:21.739Z,94473.22
2023-03-16T17:27:05.685Z,94473.81
2023-03-16T17:29:35.877Z,94483.78
2023-03-16T17:32:05.565Z,94491.38
2023-03-16T17:34:34.852Z,94489.16
2023-03-16T17:37:04.283Z,94480.09
2023-03-16T17:39:34.856Z,94489.16
2023-03-16T17:42:05.649Z,94505.22
2023-03-16T17:44:35.552Z,94473.22
2023-03-16T17:47:03.662Z,94488.81
2023-03-16T17:49:32.759Z,94457.41
2023-03-16T17:52:00.877Z,94475.91
2023-03-16T17:54:30.900Z,94502.75
2023-03-16T17:56:59.110Z,94525.00
2023-03-16T17:59:27.670Z,94510.09
2023-03-16T18:01:55.792Z,94531.16
2023-03-16T18:04:26.452Z,94511.94
2023-03-16T18:06:55.489Z,94525.56
2023-03-16T18:09:23.427Z,94514.75
2023-03-16T18:11:53.046Z,94517.53
2023-03-16T18:14:34.925Z,94528.72
2023-03-16T18:17:03.462Z,94517.44
2023-03-16T18:19:33.102Z,94519.88
2023-03-16T18:22:01.064Z,94533.47
2023-03-16T18:24:28.981Z,94531.16
2023-03-16T18:26:58.246Z,94532.41
2023-03-16T18:29:26.296Z,94536.59
2023-03-16T18:31:58.332Z,94528.31
2023-03-16T18:34:31.365Z,94533.34
2023-03-16T18:37:06.073Z,94531.47
2023-03-16T18:39:34.423Z,94519.50
2023-03-16T18:42:09.095Z,94536.25
2023-03-16T18:44:37.294Z,94522.38
2023-03-16T18:47:05.433Z,94540.19
2023-03-16T18:49:35.656Z,94528.31
2023-03-16T18:52:04.856Z,94526.41
2023-03-16T18:54:35.428Z,94517.41
2023-03-16T18:57:04.402Z,94512.50
2023-03-16T18:59:34.033Z,94537.91
2023-03-16T19:02:02.714Z,94517.78
2023-03-16T19:04:32.902Z,94550.72
2023-03-16T19:07:00.944Z,94545.00
2023-03-16T19:09:31.972Z,94517.53
2023-03-16T19:12:00.372Z,94547.47
2023-03-16T19:14:31.728Z,94545.50
2023-03-16T19:17:01.052Z,94527.41
2023-03-16T19:19:28.991Z,94557.91
2023-03-16T19:22:00.971Z,94525.53
2023-03-16T19:24:32.726Z,94557.91
2023-03-16T19:27:01.194Z,94562.69
2023-03-16T19:29:32.169Z,94558.13
2023-03-16T19:32:02.581Z,94548.81
2023-03-16T19:34:30.931Z,94544.41
2023-03-16T19:36:58.868Z,94565.72
2023-03-16T19:39:27.867Z,94565.16
2023-03-16T19:41:58.983Z,94566.28
2023-03-16T19:44:29.361Z,94564.91
2023-03-16T19:46:59.176Z,94559.81
2023-03-16T19:49:29.450Z,94547.56
2023-03-16T19:51:58.036Z,94533.13
2023-03-16T19:54:27.690Z,94562.59
2023-03-16T19:56:59.237Z,94554.06
2023-03-16T19:59:34.945Z,94555.81
2023-03-16T20:02:02.990Z,94567.56
2023-03-16T20:04:33.579Z,94572.88
2023-03-16T20:07:01.722Z,94575.34
2023-03-16T20:09:30.056Z,94574.50
2023-03-16T20:11:57.976Z,94544.13
2023-03-16T20:14:32.348Z,94563.00
2023-03-16T20:17:00.988Z,94581.25
2023-03-16T20:19:29.678Z,94586.25
2023-03-16T20:21:59.061Z,94580.81
2023-03-16T20:24:28.799Z,94587.34
2023-03-16T20:26:56.794Z,94558.91
2023-03-16T20:29:30.324Z,94581.69
2023-03-16T20:31:58.706Z,94585.56
2023-03-16T20:34:28.752Z,94587.28
2023-03-16T20:36:58.435Z,94563.53
2023-03-16T20:39:26.465Z,94590.00
2023-03-16T20:41:54.560Z,94586.84
2023-03-16T20:44:23.674Z,94587.78
2023-03-16T20:46:54.049Z,94586.13
2023-03-16T20:49:32.813Z,94564.94
2023-03-16T20:52:02.149Z,94590.50
2023-03-16T20:54:30.047Z,94585.75
2023-03-16T20:56:58.060Z,94545.91
2023-03-16T20:59:28.321Z,94594.34
2023-03-16T21:01:56.463Z,94591.44
2023-03-16T21:04:28.428Z,94602.38
2023-03-16T21:07:09.910Z,94604.81
2023-03-16T21:09:37.835Z,94600.31
2023-03-16T21:12:07.375Z,94603.06
2023-03-16T21:14:35.247Z,94594.00
2023-03-16T21:17:03.118Z,94603.91
2023-03-16T21:19:31.412Z,94605.13
2023-03-16T21:21:59.479Z,94604.38
2023-03-16T21:24:28.794Z,94587.91
2023-03-16T21:26:57.139Z,94595.94
2023-03-16T21:29:25.384Z,94609.69
2023-03-16T21:31:53.636Z,94609.69
2023-03-16T21:34:27.502Z,94610.28
2023-03-16T21:36:55.382Z,94614.50
2023-03-16T21:39:25.061Z,94612.53
2023-03-16T21:41:54.558Z,94605.63
2023-03-16T21:44:22.845Z,94614.00
2023-03-16T21:46:51.016Z,94598.50
2023-03-16T21:49:19.792Z,94585.66
2023-03-16T21:51:47.823Z,94608.53
2023-03-16T21:54:16.021Z,94614.72
2023-03-16T21:56:44.023Z,94608.66
2023-03-16T21:59:13.597Z,94574.03
2023-03-16T22:01:58.292Z,94598.50
2023-03-16T22:04:28.774Z,94618.19
2023-03-16T22:06:56.693Z,94601.41
2023-03-16T22:09:28.862Z,94614.25
2023-03-16T22:11:56.849Z,94615.22
2023-03-16T22:14:27.147Z,94615.53
2023-03-16T22:16:55.571Z,94596.53
2023-03-16T22:19:23.532Z,94608.47
2023-03-16T22:21:51.574Z,94591.44
2023-03-16T22:24:22.155Z,94612.16
2023-03-16T22:26:50.856Z,94617.03
2023-03-16T22:29:23.327Z,94608.59
2023-03-16T22:31:55.701Z,94594.03
2023-03-16T22:34:31.312Z,94606.06
2023-03-16T22:36:59.826Z,94617.03
2023-03-16T22:39:27.940Z,94616.81
2023-03-16T22:41:55.856Z,94627.59
2023-03-16T22:44:24.914Z,94627.81
2023-03-16T22:46:54.159Z,94634.47
2023-03-16T22:49:24.227Z,94637.63
2023-03-16T22:51:54.625Z,94637.00
2023-03-16T22:54:26.662Z,94642.13
2023-03-16T22:56:54.818Z,94608.78
2023-03-16T22:59:26.244Z,94648.44
2023-03-16T23:01:56.565Z,94655.50
2023-03-16T23:04:29.877Z,94640.91
2023-03-16T23:06:58.037Z,94659.91
2023-03-16T23:09:26.700Z,94658.38
2023-03-16T23:11:55.957Z,94659.47
2023-03-16T23:14:25.852Z,94649.56
2023-03-16T23:16:55.446Z,94665.41
2023-03-16T23:19:26.897Z,94670.81
2023-03-16T23:21:57.971Z,94643.03
2023-03-16T23:24:26.386Z,94679.50
2023-03-16T23:26:55.505Z,94676.84
2023-03-16T23:29:24.281Z,94679.50
2023-03-16T23:31:53.660Z,94667.97
2023-03-16T23:34:25.294Z,94661.78
2023-03-16T23:36:53.358Z,94663.19
2023-03-16T23:39:21.287Z,94687.97
2023-03-16T23:41:50.778Z,94696.25
2023-03-16T23:44:20.659Z,94690.28
2023-03-16T23:46:48.727Z,94693.94
2023-03-16T23:49:21.575Z,94696.81
2023-03-16T23:51:52.393Z,94703.31
2023-03-16T23:54:23.175Z,94691.03
2023-03-16T23:56:51.703Z,94678.41
2023-03-16T23:59:20.936Z,94691.88
